sensor_id;sensor_type;location;lat;lon;timestamp;pressure;altitude;pressure_sealevel;temperature;humidity
17230;BME280;8731;50.364;8.958;2023-04-19T00:03:35;100941.47;;;11.87;77.38
17230;BME280;8731;50.364;8.958;2023-04-19T00:07:57;100931.84;;;11.93;77.08
17230;BME280;8731;50.364;8.958;2023-04-19T00:12:20;100927.50;;;11.92;77.24
17230;BME280;8731;50.364;8.958;2023-04-19T00:16:42;100928.56;;;11.85;77.65
17230;BME280;8731;50.364;8.958;2023-04-19T00:21:05;100927.66;;;12.02;76.34
17230;BME280;8731;50.364;8.958;2023-04-19T00:25:28;100925.56;;;11.98;77.72
17230;BME280;8731;50.364;8.958;2023-04-19T00:29:51;100920.16;;;12.04;76.81
17230;BME280;8731;50.364;8.958;2023-04-19T00:34:13;100908.88;;;12.02;77.57
17230;BME280;8731;50.364;8.958;2023-04-19T00:38:37;100912.78;;;11.98;77.20
17230;BME280;8731;50.364;8.958;2023-04-19T00:43:00;100906.47;;;12.03;76.98
17230;BME280;8731;50.364;8.958;2023-04-19T00:47:22;100905.75;;;11.95;77.93
17230;BME280;8731;50.364;8.958;2023-04-19T00:51:45;100900.91;;;11.81;79.31
17230;BME280;8731;50.364;8.958;2023-04-19T00:56:10;100900.19;;;11.91;78.06
17230;BME280;8731;50.364;8.958;2023-04-19T01:00:34;100899.72;;;11.95;78.35
17230;BME280;8731;50.364;8.958;2023-04-19T01:04:57;100901.53;;;11.96;77.90
17230;BME280;8731;50.364;8.958;2023-04-19T01:09:19;100896.13;;;11.93;78.51
17230;BME280;8731;50.364;8.958;2023-04-19T01:13:43;100888.31;;;12.00;77.92
17230;BME280;8731;50.364;8.958;2023-04-19T01:18:05;100886.66;;;12.01;78.19
17230;BME280;8731;50.364;8.958;2023-04-19T01:22:29;100885.28;;;11.69;80.39
17230;BME280;8731;50.364;8.958;2023-04-19T01:26:52;100879.91;;;11.92;79.18
17230;BME280;8731;50.364;8.958;2023-04-19T01:31:14;100872.88;;;11.90;78.70
17230;BME280;8731;50.364;8.958;2023-04-19T01:35:37;100873.25;;;11.77;80.33
17230;BME280;8731;50.364;8.958;2023-04-19T01:40:03;100871.38;;;11.92;79.07
17230;BME280;8731;50.364;8.958;2023-04-19T01:44:25;100871.38;;;11.83;79.36
17230;BME280;8731;50.364;8.958;2023-04-19T01:48:48;100872.81;;;11.73;80.23
17230;BME280;8731;50.364;8.958;2023-04-19T01:53:10;100874.16;;;11.78;80.89
17230;BME280;8731;50.364;8.958;2023-04-19T01:57:34;100859.53;;;11.84;80.05
17230;BME280;8731;50.364;8.958;2023-04-19T02:01:56;100851.66;;;11.74;80.94
17230;BME280;8731;50.364;8.958;2023-04-19T02:06:19;100853.19;;;11.80;80.61
17230;BME280;8731;50.364;8.958;2023-04-19T02:10:43;100850.63;;;11.80;80.39
17230;BME280;8731;50.364;8.958;2023-04-19T02:15:08;100850.03;;;11.83;80.28
17230;BME280;8731;50.364;8.958;2023-04-19T02:19:30;100838.22;;;11.83;80.10
17230;BME280;8731;50.364;8.958;2023-04-19T02:23:53;100847.16;;;11.71;81.08
17230;BME280;8731;50.364;8.958;2023-04-19T02:28:15;100836.81;;;11.61;82.22
17230;BME280;8731;50.364;8.958;2023-04-19T02:32:39;100845.03;;;11.58;82.03
17230;BME280;8731;50.364;8.958;2023-04-19T02:37:01;100836.31;;;11.56;83.09
17230;BME280;8731;50.364;8.958;2023-04-19T02:41:24;100829.53;;;11.31;84.63
17230;BME280;8731;50.364;8.958;2023-04-19T02:45:46;100822.53;;;11.54;83.43
17230;BME280;8731;50.364;8.958;2023-04-19T02:50:10;100832.00;;;11.64;82.05
17230;BME280;8731;50.364;8.958;2023-04-19T02:54:39;100829.69;;;11.32;85.11
17230;BME280;8731;50.364;8.958;2023-04-19T02:59:02;100834.03;;;11.33;84.80
17230;BME280;8731;50.364;8.958;2023-04-19T03:03:27;100827.88;;;11.31;85.20
17230;BME280;8731;50.364;8.958;2023-04-19T03:07:50;100818.78;;;11.51;83.58
17230;BME280;8731;50.364;8.958;2023-04-19T03:12:13;100817.13;;;11.51;83.30
17230;BME280;8731;50.364;8.958;2023-04-19T03:16:36;100815.31;;;11.50;83.41
17230;BME280;8731;50.364;8.958;2023-04-19T03:20:59;100804.53;;;11.53;83.29
17230;BME280;8731;50.364;8.958;2023-04-19T03:25:28;100809.50;;;11.60;82.32
17230;BME280;8731;50.364;8.958;2023-04-19T03:30:06;100810.41;;;11.60;82.16
17230;BME280;8731;50.364;8.958;2023-04-19T03:34:29;100804.84;;;11.64;82.68
17230;BME280;8731;50.364;8.958;2023-04-19T03:38:53;100794.50;;;11.63;82.71
17230;BME280;8731;50.364;8.958;2023-04-19T03:43:17;100788.00;;;11.58;82.07
17230;BME280;8731;50.364;8.958;2023-04-19T03:47:40;100785.47;;;11.49;82.16
17230;BME280;8731;50.364;8.958;2023-04-19T03:52:04;100787.44;;;11.60;82.19
17230;BME280;8731;50.364;8.958;2023-04-19T03:56:27;100781.88;;;11.56;82.20
17230;BME280;8731;50.364;8.958;2023-04-19T04:00:51;100778.41;;;11.55;81.99
17230;BME280;8731;50.364;8.958;2023-04-19T04:05:14;100785.19;;;11.46;81.95
17230;BME280;8731;50.364;8.958;2023-04-19T04:09:36;100783.22;;;11.52;81.47
17230;BME280;8731;50.364;8.958;2023-04-19T04:13:59;100787.13;;;11.40;81.91
17230;BME280;8731;50.364;8.958;2023-04-19T04:18:26;100789.09;;;11.43;81.64
17230;BME280;8731;50.364;8.958;2023-04-19T04:22:50;100787.44;;;11.43;81.99
17230;BME280;8731;50.364;8.958;2023-04-19T04:27:14;100779.34;;;11.38;81.39
17230;BME280;8731;50.364;8.958;2023-04-19T04:31:39;100788.34;;;11.44;80.56
17230;BME280;8731;50.364;8.958;2023-04-19T04:36:05;100789.66;;;11.31;82.00
17230;BME280;8731;50.364;8.958;2023-04-19T04:40:30;100780.94;;;11.21;82.33
17230;BME280;8731;50.364;8.958;2023-04-19T04:44:53;100779.56;;;10.98;82.80
17230;BME280;8731;50.364;8.958;2023-04-19T04:49:18;100781.41;;;11.17;81.62
17230;BME280;8731;50.364;8.958;2023-04-19T04:53:42;100784.09;;;11.27;80.70
17230;BME280;8731;50.364;8.958;2023-04-19T04:58:05;100781.41;;;11.17;81.01
17230;BME280;8731;50.364;8.958;2023-04-19T05:02:47;100777.47;;;11.12;82.09
17230;BME280;8731;50.364;8.958;2023-04-19T05:07:09;100790.69;;;11.25;81.11
17230;BME280;8731;50.364;8.958;2023-04-19T05:11:33;100790.41;;;11.30;81.54
17230;BME280;8731;50.364;8.958;2023-04-19T05:15:56;100787.53;;;11.19;80.95
17230;BME280;8731;50.364;8.958;2023-04-19T05:20:19;100796.34;;;10.96;80.36
17230;BME280;8731;50.364;8.958;2023-04-19T05:24:46;100795.00;;;11.08;79.70
17230;BME280;8731;50.364;8.958;2023-04-19T05:29:11;100788.75;;;11.14;78.90
17230;BME280;8731;50.364;8.958;2023-04-19T05:33:43;100792.75;;;11.12;77.46
17230;BME280;8731;50.364;8.958;2023-04-19T05:38:05;100789.78;;;11.16;77.43
17230;BME280;8731;50.364;8.958;2023-04-19T05:42:28;100787.50;;;11.01;76.15
17230;BME280;8731;50.364;8.958;2023-04-19T05:46:52;100787.78;;;10.96;75.61
17230;BME280;8731;50.364;8.958;2023-04-19T05:51:34;100782.25;;;11.00;75.76
17230;BME280;8731;50.364;8.958;2023-04-19T05:56:07;100790.63;;;10.90;74.79
17230;BME280;8731;50.364;8.958;2023-04-19T06:00:30;100785.25;;;11.04;73.77
17230;BME280;8731;50.364;8.958;2023-04-19T06:05:02;100777.16;;;11.08;73.54
17230;BME280;8731;50.364;8.958;2023-04-19T06:09:25;100782.47;;;10.77;73.88
17230;BME280;8731;50.364;8.958;2023-04-19T06:13:48;100770.56;;;11.02;73.76
17230;BME280;8731;50.364;8.958;2023-04-19T06:18:11;100779.69;;;11.00;73.57
17230;BME280;8731;50.364;8.958;2023-04-19T06:22:41;100780.16;;;11.04;73.51
17230;BME280;8731;50.364;8.958;2023-04-19T06:27:04;100772.34;;;10.94;72.15
17230;BME280;8731;50.364;8.958;2023-04-19T06:31:27;100781.41;;;11.17;71.66
17230;BME280;8731;50.364;8.958;2023-04-19T06:35:49;100776.41;;;11.10;72.04
17230;BME280;8731;50.364;8.958;2023-04-19T06:40:13;100785.25;;;11.04;71.43
17230;BME280;8731;50.364;8.958;2023-04-19T06:44:35;100782.53;;;10.94;71.29
17230;BME280;8731;50.364;8.958;2023-04-19T06:48:57;100777.00;;;10.98;70.80
17230;BME280;8731;50.364;8.958;2023-04-19T06:53:20;100777.69;;;10.80;70.02
17230;BME280;8731;50.364;8.958;2023-04-19T06:57:44;100760.16;;;10.74;69.57
17230;BME280;8731;50.364;8.958;2023-04-19T07:02:06;100762.47;;;11.06;69.94
17230;BME280;8731;50.364;8.958;2023-04-19T07:06:28;100765.75;;;11.05;69.73
17230;BME280;8731;50.364;8.958;2023-04-19T07:10:51;100767.59;;;11.23;68.19
17230;BME280;8731;50.364;8.958;2023-04-19T07:15:17;100770.78;;;11.38;66.83
17230;BME280;8731;50.364;8.958;2023-04-19T07:19:39;100755.47;;;11.47;66.47
17230;BME280;8731;50.364;8.958;2023-04-19T07:24:02;100750.22;;;11.80;65.68
17230;BME280;8731;50.364;8.958;2023-04-19T07:28:27;100746.91;;;11.98;64.38
17230;BME280;8731;50.364;8.958;2023-04-19T07:32:51;100729.72;;;12.32;61.24
17230;BME280;8731;50.364;8.958;2023-04-19T07:37:32;100730.00;;;12.35;62.44
17230;BME280;8731;50.364;8.958;2023-04-19T07:41:55;100719.34;;;13.12;60.78
17230;BME280;8731;50.364;8.958;2023-04-19T07:46:18;100724.94;;;13.36;59.57
17230;BME280;8731;50.364;8.958;2023-04-19T07:50:45;100722.72;;;13.49;59.50
17230;BME280;8731;50.364;8.958;2023-04-19T07:55:08;100717.72;;;14.37;57.82
17230;BME280;8731;50.364;8.958;2023-04-19T07:59:35;100712.56;;;14.77;57.73
17230;BME280;8731;50.364;8.958;2023-04-19T08:04:01;100715.78;;;15.04;55.24
17230;BME280;8731;50.364;8.958;2023-04-19T08:08:27;100716.94;;;15.08;54.83
17230;BME280;8731;50.364;8.958;2023-04-19T08:12:51;100706.75;;;15.60;54.85
17230;BME280;8731;50.364;8.958;2023-04-19T08:17:13;100711.69;;;14.96;53.45
17230;BME280;8731;50.364;8.958;2023-04-19T08:21:40;100707.91;;;15.96;53.09
17230;BME280;8731;50.364;8.958;2023-04-19T08:26:04;100710.38;;;15.94;52.32
17230;BME280;8731;50.364;8.958;2023-04-19T08:30:26;100730.75;;;16.35;51.40
17230;BME280;8731;50.364;8.958;2023-04-19T08:34:49;100725.84;;;16.38;50.01
17230;BME280;8731;50.364;8.958;2023-04-19T08:39:14;100719.03;;;17.28;49.41
17230;BME280;8731;50.364;8.958;2023-04-19T08:43:40;100711.19;;;17.49;51.33
17230;BME280;8731;50.364;8.958;2023-04-19T08:48:08;100716.84;;;16.11;50.76
17230;BME280;8731;50.364;8.958;2023-04-19T08:52:33;100715.59;;;16.50;49.70
17230;BME280;8731;50.364;8.958;2023-04-19T08:56:58;100718.47;;;16.43;50.40
17230;BME280;8731;50.364;8.958;2023-04-19T09:01:26;100712.75;;;17.36;49.28
17230;BME280;8731;50.364;8.958;2023-04-19T09:05:51;100720.44;;;17.12;50.63
17230;BME280;8731;50.364;8.958;2023-04-19T09:10:15;100697.69;;;17.52;48.79
17230;BME280;8731;50.364;8.958;2023-04-19T09:14:43;100709.63;;;17.40;47.17
17230;BME280;8731;50.364;8.958;2023-04-19T09:19:08;100694.38;;;17.08;48.23
17230;BME280;8731;50.364;8.958;2023-04-19T09:23:31;100713.34;;;16.43;48.05
17230;BME280;8731;50.364;8.958;2023-04-19T09:27:54;100693.47;;;18.24;48.97
17230;BME280;8731;50.364;8.958;2023-04-19T09:32:44;100685.38;;;18.56;45.65
17230;BME280;8731;50.364;8.958;2023-04-19T09:37:12;100693.78;;;17.81;46.16
17230;BME280;8731;50.364;8.958;2023-04-19T09:41:34;100692.38;;;17.15;46.94
17230;BME280;8731;50.364;8.958;2023-04-19T09:46:29;100701.97;;;16.51;48.53
17230;BME280;8731;50.364;8.958;2023-04-19T09:50:53;100683.75;;;16.70;46.21
17230;BME280;8731;50.364;8.958;2023-04-19T09:55:19;100679.91;;;18.52;43.49
17230;BME280;8731;50.364;8.958;2023-04-19T09:59:43;100664.44;;;19.01;43.46
17230;BME280;8731;50.364;8.958;2023-04-19T10:04:06;100666.28;;;19.55;43.06
17230;BME280;8731;50.364;8.958;2023-04-19T10:08:31;100665.56;;;18.44;43.25
17230;BME280;8731;50.364;8.958;2023-04-19T10:12:56;100663.28;;;19.89;41.68
17230;BME280;8731;50.364;8.958;2023-04-19T10:17:19;100650.47;;;19.77;40.06
17230;BME280;8731;50.364;8.958;2023-04-19T10:21:43;100660.28;;;19.17;38.51
17230;BME280;8731;50.364;8.958;2023-04-19T10:26:07;100643.00;;;21.08;39.88
17230;BME280;8731;50.364;8.958;2023-04-19T10:30:31;100640.53;;;19.17;36.16
17230;BME280;8731;50.364;8.958;2023-04-19T10:34:53;100643.16;;;18.42;38.93
17230;BME280;8731;50.364;8.958;2023-04-19T10:39:39;100630.53;;;20.03;36.25
17230;BME280;8731;50.364;8.958;2023-04-19T10:44:10;100634.66;;;19.20;37.91
17230;BME280;8731;50.364;8.958;2023-04-19T10:48:35;100625.44;;;19.50;35.93
17230;BME280;8731;50.364;8.958;2023-04-19T10:58:22;100613.41;;;19.50;34.17
17230;BME280;8731;50.364;8.958;2023-04-19T11:02:45;100605.72;;;19.91;36.02
17230;BME280;8731;50.364;8.958;2023-04-19T11:07:07;100609.72;;;19.73;32.88
17230;BME280;8731;50.364;8.958;2023-04-19T11:11:33;100599.97;;;21.10;32.71
17230;BME280;8731;50.364;8.958;2023-04-19T11:15:57;100591.09;;;21.22;32.77
17230;BME280;8731;50.364;8.958;2023-04-19T11:20:22;100594.63;;;20.35;32.47
17230;BME280;8731;50.364;8.958;2023-04-19T11:24:45;100582.41;;;21.51;33.76
17230;BME280;8731;50.364;8.958;2023-04-19T11:29:09;100581.25;;;21.45;33.61
17230;BME280;8731;50.364;8.958;2023-04-19T11:33:32;100577.34;;;19.52;29.55
17230;BME280;8731;50.364;8.958;2023-04-19T11:37:55;100567.66;;;20.60;31.95
17230;BME280;8731;50.364;8.958;2023-04-19T11:42:20;100565.25;;;20.77;30.82
17230;BME280;8731;50.364;8.958;2023-04-19T11:46:58;100557.09;;;19.86;29.92
17230;BME280;8731;50.364;8.958;2023-04-19T11:51:20;100553.53;;;19.84;31.40
17230;BME280;8731;50.364;8.958;2023-04-19T11:55:47;100556.03;;;19.01;31.04
17230;BME280;8731;50.364;8.958;2023-04-19T12:00:12;100536.53;;;20.15;31.08
17230;BME280;8731;50.364;8.958;2023-04-19T12:04:38;100541.28;;;17.38;30.48
17230;BME280;8731;50.364;8.958;2023-04-19T12:09:06;100521.41;;;18.60;31.81
17230;BME280;8731;50.364;8.958;2023-04-19T12:13:29;100538.22;;;18.41;31.10
17230;BME280;8731;50.364;8.958;2023-04-19T12:17:57;100526.53;;;18.08;30.53
17230;BME280;8731;50.364;8.958;2023-04-19T12:22:22;100522.06;;;17.81;31.74
17230;BME280;8731;50.364;8.958;2023-04-19T12:26:52;100524.28;;;17.88;32.64
17230;BME280;8731;50.364;8.958;2023-04-19T12:31:16;100510.66;;;18.02;32.35
17230;BME280;8731;50.364;8.958;2023-04-19T12:35:39;100498.69;;;18.16;32.97
17230;BME280;8731;50.364;8.958;2023-04-19T12:40:07;100515.03;;;16.72;31.66
17230;BME280;8731;50.364;8.958;2023-04-19T12:44:29;100508.50;;;18.60;33.04
17230;BME280;8731;50.364;8.958;2023-04-19T12:48:52;100492.44;;;18.13;31.07
17230;BME280;8731;50.364;8.958;2023-04-19T12:53:14;100516.91;;;17.21;30.25
17230;BME280;8731;50.364;8.958;2023-04-19T12:57:38;100494.47;;;17.92;31.77
17230;BME280;8731;50.364;8.958;2023-04-19T13:02:00;100500.25;;;17.64;31.21
17230;BME280;8731;50.364;8.958;2023-04-19T13:06:23;100503.88;;;17.06;30.60
17230;BME280;8731;50.364;8.958;2023-04-19T13:10:46;100488.56;;;17.44;32.19
17230;BME280;8731;50.364;8.958;2023-04-19T13:15:10;100497.25;;;17.10;31.44
17230;BME280;8731;50.364;8.958;2023-04-19T13:19:32;100502.19;;;16.95;31.69
17230;BME280;8731;50.364;8.958;2023-04-19T13:23:57;100501.22;;;16.36;31.07
17230;BME280;8731;50.364;8.958;2023-04-19T13:28:19;100487.41;;;15.79;30.79
17230;BME280;8731;50.364;8.958;2023-04-19T13:32:43;100482.38;;;16.94;30.64
17230;BME280;8731;50.364;8.958;2023-04-19T13:37:05;100478.53;;;16.42;31.19
17230;BME280;8731;50.364;8.958;2023-04-19T13:41:28;100499.84;;;16.18;31.19
17230;BME280;8731;50.364;8.958;2023-04-19T13:45:50;100482.13;;;16.33;31.11
17230;BME280;8731;50.364;8.958;2023-04-19T13:50:14;100461.69;;;17.04;32.19
17230;BME280;8731;50.364;8.958;2023-04-19T13:54:36;100456.59;;;16.81;32.09
17230;BME280;8731;50.364;8.958;2023-04-19T13:58:59;100450.41;;;15.99;32.48
17230;BME280;8731;50.364;8.958;2023-04-19T14:03:21;100454.66;;;15.98;32.96
17230;BME280;8731;50.364;8.958;2023-04-19T14:07:45;100445.78;;;16.28;33.03
17230;BME280;8731;50.364;8.958;2023-04-19T14:12:08;100454.88;;;15.89;32.13
17230;BME280;8731;50.364;8.958;2023-04-19T14:16:31;100437.59;;;15.43;33.31
17230;BME280;8731;50.364;8.958;2023-04-19T14:20:53;100438.28;;;15.74;33.25
17230;BME280;8731;50.364;8.958;2023-04-19T14:25:17;100419.88;;;16.60;33.47
17230;BME280;8731;50.364;8.958;2023-04-19T14:29:39;100436.53;;;16.42;32.58
17230;BME280;8731;50.364;8.958;2023-04-19T14:34:02;100430.03;;;16.47;32.76
17230;BME280;8731;50.364;8.958;2023-04-19T14:38:24;100419.53;;;16.79;32.90
17230;BME280;8731;50.364;8.958;2023-04-19T14:42:48;100412.28;;;16.38;32.42
17230;BME280;8731;50.364;8.958;2023-04-19T14:47:10;100414.63;;;15.78;32.73
17230;BME280;8731;50.364;8.958;2023-04-19T14:51:33;100433.09;;;15.19;32.54
17230;BME280;8731;50.364;8.958;2023-04-19T14:55:55;100408.16;;;15.50;33.84
17230;BME280;8731;50.364;8.958;2023-04-19T15:00:19;100401.78;;;15.45;33.70
17230;BME280;8731;50.364;8.958;2023-04-19T15:04:42;100403.63;;;14.92;34.79
17230;BME280;8731;50.364;8.958;2023-04-19T15:09:04;100409.16;;;14.86;33.77
17230;BME280;8731;50.364;8.958;2023-04-19T15:13:26;100398.22;;;14.89;33.66
17230;BME280;8731;50.364;8.958;2023-04-19T15:17:51;100402.59;;;15.12;34.40
17230;BME280;8731;50.364;8.958;2023-04-19T15:22:13;100404.91;;;14.87;34.88
17230;BME280;8731;50.364;8.958;2023-04-19T15:26:35;100410.53;;;14.93;34.82
17230;BME280;8731;50.364;8.958;2023-04-19T15:31:01;100420.59;;;14.48;35.75
17230;BME280;8731;50.364;8.958;2023-04-19T15:35:26;100412.25;;;14.82;34.50
17230;BME280;8731;50.364;8.958;2023-04-19T15:39:49;100409.47;;;15.23;35.36
17230;BME280;8731;50.364;8.958;2023-04-19T15:44:12;100413.75;;;14.58;34.45
17230;BME280;8731;50.364;8.958;2023-04-19T15:48:34;100407.88;;;14.81;34.25
17230;BME280;8731;50.364;8.958;2023-04-19T15:52:59;100420.28;;;14.87;34.54
17230;BME280;8731;50.364;8.958;2023-04-19T15:57:21;100414.22;;;14.74;36.03
17230;BME280;8731;50.364;8.958;2023-04-19T16:01:44;100418.16;;;14.19;37.19
17230;BME280;8731;50.364;8.958;2023-04-19T16:06:06;100412.34;;;14.41;37.55
17230;BME280;8731;50.364;8.958;2023-04-19T16:10:35;100428.91;;;14.14;37.51
17230;BME280;8731;50.364;8.958;2023-04-19T16:14:58;100427.91;;;13.92;37.72
17230;BME280;8731;50.364;8.958;2023-04-19T16:19:21;100417.63;;;14.33;36.94
17230;BME280;8731;50.364;8.958;2023-04-19T16:23:43;100428.03;;;14.14;36.95
17230;BME280;8731;50.364;8.958;2023-04-19T16:28:07;100432.50;;;14.17;36.78
17230;BME280;8731;50.364;8.958;2023-04-19T16:32:29;100440.19;;;13.66;37.28
17230;BME280;8731;50.364;8.958;2023-04-19T16:36:52;100437.88;;;13.59;37.52
17230;BME280;8731;50.364;8.958;2023-04-19T16:41:14;100441.03;;;13.46;38.15
17230;BME280;8731;50.364;8.958;2023-04-19T16:45:38;100431.50;;;13.54;37.32
17230;BME280;8731;50.364;8.958;2023-04-19T16:50:04;100433.50;;;13.47;37.97
17230;BME280;8731;50.364;8.958;2023-04-19T16:54:27;100435.97;;;13.56;38.61
17230;BME280;8731;50.364;8.958;2023-04-19T16:58:50;100434.16;;;13.55;37.27
17230;BME280;8731;50.364;8.958;2023-04-19T17:03:17;100437.88;;;13.09;36.99
17230;BME280;8731;50.364;8.958;2023-04-19T17:07:39;100430.63;;;13.24;36.81
17230;BME280;8731;50.364;8.958;2023-04-19T17:12:02;100435.19;;;13.08;37.61
17230;BME280;8731;50.364;8.958;2023-04-19T17:16:25;100442.25;;;12.81;37.63
17230;BME280;8731;50.364;8.958;2023-04-19T17:20:49;100433.84;;;12.93;37.21
17230;BME280;8731;50.364;8.958;2023-04-19T17:25:11;100434.81;;;13.13;37.59
17230;BME280;8731;50.364;8.958;2023-04-19T17:29:34;100436.34;;;13.11;37.45
17230;BME280;8731;50.364;8.958;2023-04-19T17:33:57;100431.53;;;12.85;37.16
17230;BME280;8731;50.364;8.958;2023-04-19T17:38:21;100429.84;;;12.86;37.21
17230;BME280;8731;50.364;8.958;2023-04-19T17:42:43;100424.63;;;12.84;38.05
17230;BME280;8731;50.364;8.958;2023-04-19T17:47:05;100431.78;;;12.88;38.39
17230;BME280;8731;50.364;8.958;2023-04-19T17:51:28;100434.50;;;12.71;38.20
17230;BME280;8731;50.364;8.958;2023-04-19T17:55:53;100433.13;;;12.75;38.40
17230;BME280;8731;50.364;8.958;2023-04-19T18:00:16;100427.94;;;12.83;39.83
17230;BME280;8731;50.364;8.958;2023-04-19T18:04:41;100429.94;;;12.77;40.23
17230;BME280;8731;50.364;8.958;2023-04-19T18:09:04;100423.78;;;12.75;40.92
17230;BME280;8731;50.364;8.958;2023-04-19T18:13:29;100428.38;;;12.69;40.91
17230;BME280;8731;50.364;8.958;2023-04-19T18:17:51;100436.50;;;12.36;41.29
17230;BME280;8731;50.364;8.958;2023-04-19T18:22:14;100433.59;;;12.23;41.65
17230;BME280;8731;50.364;8.958;2023-04-19T18:26:36;100446.81;;;11.73;42.47
17230;BME280;8731;50.364;8.958;2023-04-19T18:31:01;100442.06;;;11.94;42.39
17230;BME280;8731;50.364;8.958;2023-04-19T18:35:24;100452.28;;;11.58;41.68
17230;BME280;8731;50.364;8.958;2023-04-19T18:39:48;100449.94;;;11.51;42.48
17230;BME280;8731;50.364;8.958;2023-04-19T18:44:10;100449.66;;;11.48;42.09
17230;BME280;8731;50.364;8.958;2023-04-19T18:48:34;100446.75;;;11.62;41.71
17230;BME280;8731;50.364;8.958;2023-04-19T18:52:57;100446.97;;;11.47;42.14
17230;BME280;8731;50.364;8.958;2023-04-19T18:57:20;100446.53;;;11.42;42.18
17230;BME280;8731;50.364;8.958;2023-04-19T19:01:43;100457.50;;;11.41;42.99
17230;BME280;8731;50.364;8.958;2023-04-19T19:06:08;100462.00;;;11.35;43.37
17230;BME280;8731;50.364;8.958;2023-04-19T19:10:32;100460.78;;;11.40;43.84
17230;BME280;8731;50.364;8.958;2023-04-19T19:14:54;100458.88;;;11.29;43.61
17230;BME280;8731;50.364;8.958;2023-04-19T19:19:18;100458.22;;;11.04;44.95
17230;BME280;8731;50.364;8.958;2023-04-19T19:23:42;100460.75;;;11.13;44.24
17230;BME280;8731;50.364;8.958;2023-04-19T19:28:05;100462.16;;;10.92;45.18
17230;BME280;8731;50.364;8.958;2023-04-19T19:32:28;100463.66;;;10.81;45.69
17230;BME280;8731;50.364;8.958;2023-04-19T19:36:51;100463.66;;;10.81;45.71
17230;BME280;8731;50.364;8.958;2023-04-19T19:41:15;100464.72;;;10.74;45.43
17230;BME280;8731;50.364;8.958;2023-04-19T19:45:38;100453.19;;;10.78;45.62
17230;BME280;8731;50.364;8.958;2023-04-19T19:50:01;100459.81;;;10.67;46.74
17230;BME280;8731;50.364;8.958;2023-04-19T19:54:25;100463.66;;;10.64;46.35
17230;BME280;8731;50.364;8.958;2023-04-19T19:58:49;100458.31;;;10.43;47.71
17230;BME280;8731;50.364;8.958;2023-04-19T20:03:11;100462.94;;;10.48;47.02
17230;BME280;8731;50.364;8.958;2023-04-19T20:07:36;100463.84;;;10.39;47.47
17230;BME280;8731;50.364;8.958;2023-04-19T20:12:00;100465.63;;;10.32;47.24
17230;BME280;8731;50.364;8.958;2023-04-19T20:16:24;100474.16;;;9.65;50.38
17230;BME280;8731;50.364;8.958;2023-04-19T20:20:48;100467.19;;;9.79;51.36
17230;BME280;8731;50.364;8.958;2023-04-19T20:25:11;100455.50;;;9.73;51.80
17230;BME280;8731;50.364;8.958;2023-04-19T20:29:34;100462.41;;;9.41;52.41
17230;BME280;8731;50.364;8.958;2023-04-19T20:33:58;100455.81;;;9.26;53.42
17230;BME280;8731;50.364;8.958;2023-04-19T20:38:20;100455.81;;;9.34;53.18
17230;BME280;8731;50.364;8.958;2023-04-19T20:42:45;100452.03;;;9.22;53.66
17230;BME280;8731;50.364;8.958;2023-04-19T20:47:08;100446.94;;;8.65;55.75
17230;BME280;8731;50.364;8.958;2023-04-19T20:51:33;100445.88;;;8.87;54.34
17230;BME280;8731;50.364;8.958;2023-04-19T20:55:56;100444.56;;;8.50;55.68
17230;BME280;8731;50.364;8.958;2023-04-19T21:00:19;100455.75;;;8.12;57.52
17230;BME280;8731;50.364;8.958;2023-04-19T21:04:44;100444.75;;;8.20;56.98
17230;BME280;8731;50.364;8.958;2023-04-19T21:09:08;100435.69;;;8.22;56.76
17230;BME280;8731;50.364;8.958;2023-04-19T21:13:31;100430.44;;;8.21;56.66
17230;BME280;8731;50.364;8.958;2023-04-19T21:17:53;100425.94;;;8.18;56.41
17230;BME280;8731;50.364;8.958;2023-04-19T21:22:16;100427.22;;;8.06;57.01
17230;BME280;8731;50.364;8.958;2023-04-19T21:26:40;100426.78;;;7.79;58.56
17230;BME280;8731;50.364;8.958;2023-04-19T21:31:03;100424.56;;;7.66;59.38
17230;BME280;8731;50.364;8.958;2023-04-19T21:35:26;100421.94;;;7.73;58.37
17230;BME280;8731;50.364;8.958;2023-04-19T21:39:49;100424.25;;;7.79;58.73
17230;BME280;8731;50.364;8.958;2023-04-19T21:44:13;100419.06;;;7.38;59.59
17230;BME280;8731;50.364;8.958;2023-04-19T21:48:35;100417.31;;;7.30;60.93
17230;BME280;8731;50.364;8.958;2023-04-19T21:52:58;100412.16;;;7.60;59.10
17230;BME280;8731;50.364;8.958;2023-04-19T21:57:20;100409.63;;;7.22;61.39
17230;BME280;8731;50.364;8.958;2023-04-19T22:01:45;100420.72;;;6.69;63.36
17230;BME280;8731;50.364;8.958;2023-04-19T22:06:08;100404.84;;;7.09;61.02
17230;BME280;8731;50.364;8.958;2023-04-19T22:10:31;100403.94;;;7.08;61.48
17230;BME280;8731;50.364;8.958;2023-04-19T22:14:54;100412.19;;;6.46;66.11
17230;BME280;8731;50.364;8.958;2023-04-19T22:19:18;100398.78;;;6.77;63.17
17230;BME280;8731;50.364;8.958;2023-04-19T22:23:43;100400.84;;;6.35;66.58
17230;BME280;8731;50.364;8.958;2023-04-19T22:28:06;100402.25;;;6.70;63.87
17230;BME280;8731;50.364;8.958;2023-04-19T22:32:28;100395.44;;;6.62;64.76
17230;BME280;8731;50.364;8.958;2023-04-19T22:36:53;100401.63;;;6.27;66.88
17230;BME280;8731;50.364;8.958;2023-04-19T22:41:16;100392.00;;;6.02;68.03
17230;BME280;8731;50.364;8.958;2023-04-19T22:45:38;100386.06;;;6.31;65.98
17230;BME280;8731;50.364;8.958;2023-04-19T22:50:04;100383.38;;;6.30;65.50
17230;BME280;8731;50.364;8.958;2023-04-19T22:54:29;100373.78;;;5.97;66.65
17230;BME280;8731;50.364;8.958;2023-04-19T22:58:52;100377.28;;;5.76;69.14
17230;BME280;8731;50.364;8.958;2023-04-19T23:03:14;100374.81;;;6.06;67.05
17230;BME280;8731;50.364;8.958;2023-04-19T23:07:36;100366.75;;;5.88;68.77
17230;BME280;8731;50.364;8.958;2023-04-19T23:12:02;100358.75;;;5.54;71.94
17230;BME280;8731;50.364;8.958;2023-04-19T23:16:25;100347.34;;;5.72;70.81
17230;BME280;8731;50.364;8.958;2023-04-19T23:20:48;100344.75;;;5.86;69.75
17230;BME280;8731;50.364;8.958;2023-04-19T23:25:10;100344.56;;;5.85;68.74
17230;BME280;8731;50.364;8.958;2023-04-19T23:29:34;100333.38;;;5.90;68.40